Time;durP1;ratioP1;P1;durP2;ratioP2;P2;SDS_P1;SDS_P2;PMS_P1;PMS_P2;Temp;Humidity;BMP_temperature;BMP_pressure;BME280_temperature;BME280_humidity;BME280_pressure;Samples;Min_cycle;Max_cycle;Signal;HPM_P1;HPM_P2
2023/01/06 00:02:39;;;;;;;4.28;3.63;;;;;;;;;;10312955;28;20216;-76
2023/01/06 00:07:42;;;;;;;5.57;3.08;;;;;;;;;;10296728;28;20656;-75
2023/01/06 00:12:44;;;;;;;5.57;3.63;;;;;;;;;;10328969;28;20252;-75
2023/01/06 00:17:45;;;;;;;4.50;4.13;;;;;;;;;;10328851;28;20209;-74
2023/01/06 00:22:46;;;;;;;4.78;4.30;;;;;;;;;;10299255;28;20233;-75
2023/01/06 00:27:47;;;;;;;3.30;2.80;;;;;;;;;;10294504;28;20204;-75
2023/01/06 00:32:50;;;;;;;3.95;3.13;;;;;;;;;;10315374;28;20210;-75
2023/01/06 00:37:51;;;;;;;5.60;3.70;;;;;;;;;;10327829;28;20228;-75
2023/01/06 00:42:52;;;;;;;3.22;2.90;;;;;;;;;;10311733;28;20225;-75
2023/01/06 00:47:53;;;;;;;10.82;3.72;;;;;;;;;;10326497;28;20608;-75
2023/01/06 00:52:54;;;;;;;3.63;3.25;;;;;;;;;;10297173;28;20216;-75
2023/01/06 00:57:55;;;;;;;3.33;3.05;;;;;;;;;;10299363;28;20213;-75
2023/01/06 01:02:56;;;;;;;7.68;3.97;;;;;;;;;;10314221;28;20262;-75
2023/01/06 01:07:57;;;;;;;3.92;3.42;;;;;;;;;;10297004;28;20286;-75
2023/01/06 01:12:58;;;;;;;3.78;3.58;;;;;;;;;;10316805;28;20208;-75
2023/01/06 01:17:59;;;;;;;4.50;3.45;;;;;;;;;;10309833;28;20213;-75
2023/01/06 01:23:00;;;;;;;5.28;3.58;;;;;;;;;;10326770;28;20228;-76
2023/01/06 01:28:01;;;;;;;5.05;4.18;;;;;;;;;;10297652;28;20212;-75
2023/01/06 01:33:02;;;;;;;6.47;4.00;;;;;;;;;;10293908;28;20323;-75
2023/01/06 01:38:03;;;;;;;4.53;3.97;;;;;;;;;;10308714;28;20308;-74
2023/01/06 01:43:05;;;;;;;7.18;4.00;;;;;;;;;;10295448;28;20213;-75
2023/01/06 01:48:13;;;;;;;6.03;3.80;;;;;;;;;;10308620;28;20692;-75
2023/01/06 01:53:33;;;;;;;6.80;3.92;;;;;;;;;;10306815;28;20221;-75
2023/01/06 01:58:37;;;;;;;4.50;4.07;;;;;;;;;;10293868;28;20228;-75
2023/01/06 02:03:40;;;;;;;5.82;4.05;;;;;;;;;;10293578;28;20311;-77
2023/01/06 02:08:44;;;;;;;6.35;3.95;;;;;;;;;;10322573;28;20691;-75
2023/01/06 02:13:46;;;;;;;4.72;3.85;;;;;;;;;;10295296;28;20237;-75
2023/01/06 02:18:52;;;;;;;9.68;4.28;;;;;;;;;;10310440;28;20216;-75
2023/01/06 02:24:02;;;;;;;6.05;4.60;;;;;;;;;;10290719;28;20224;-75
2023/01/06 02:29:16;;;;;;;8.88;5.30;;;;;;;;;;10324542;28;20444;-75
2023/01/06 02:34:41;;;;;;;9.25;5.43;;;;;;;;;;10328251;28;20278;-75
2023/01/06 02:39:57;;;;;;;6.78;5.50;;;;;;;;;;10266685;28;20664;-76
2023/01/06 02:44:58;;;;;;;5.13;4.72;;;;;;;;;;10326350;28;20219;-76
2023/01/06 02:50:06;;;;;;;5.68;4.57;;;;;;;;;;10293539;28;20300;-74
2023/01/06 02:55:27;;;;;;;12.80;4.82;;;;;;;;;;10293761;28;20343;-76
2023/01/06 03:00:38;;;;;;;10.85;5.65;;;;;;;;;;10349411;28;20297;-76
2023/01/06 03:05:40;;;;;;;9.80;5.40;;;;;;;;;;10337947;28;20220;-76
2023/01/06 03:10:43;;;;;;;9.63;4.90;;;;;;;;;;10350942;28;20216;-76
2023/01/06 03:15:45;;;;;;;13.98;4.95;;;;;;;;;;10356438;28;20561;-76
2023/01/06 03:20:47;;;;;;;12.20;5.13;;;;;;;;;;10328961;28;20234;-75
2023/01/06 03:25:48;;;;;;;11.27;5.18;;;;;;;;;;10340982;28;20223;-77
2023/01/06 03:31:03;;;;;;;8.60;4.80;;;;;;;;;;10373449;28;20228;-76
2023/01/06 03:36:14;;;;;;;8.35;4.82;;;;;;;;;;10338037;28;20244;-76
2023/01/06 03:46:59;;;;;;;7.75;4.78;;;;;;;;;;10343530;28;20616;-76
2023/01/06 03:52:12;;;;;;;10.57;5.45;;;;;;;;;;10340068;28;20231;-77
2023/01/06 03:57:19;;;;;;;12.70;6.20;;;;;;;;;;10343569;28;20201;-76
2023/01/06 04:02:22;;;;;;;11.85;4.93;;;;;;;;;;10338328;28;20216;-77
2023/01/06 04:07:23;;;;;;;10.50;4.72;;;;;;;;;;10338927;28;20267;-75
2023/01/06 04:12:39;;;;;;;9.77;5.35;;;;;;;;;;10351087;28;20205;-76
2023/01/06 04:17:45;;;;;;;15.93;5.22;;;;;;;;;;10345998;28;20323;-76
2023/01/06 04:22:48;;;;;;;10.18;5.28;;;;;;;;;;10355242;28;20226;-76
2023/01/06 04:27:49;;;;;;;7.53;4.93;;;;;;;;;;10332947;28;20319;-75
2023/01/06 04:32:52;;;;;;;13.27;4.68;;;;;;;;;;10346697;28;20807;-76
2023/01/06 04:37:53;;;;;;;9.40;4.85;;;;;;;;;;10336533;28;20217;-75
2023/01/06 04:43:03;;;;;;;6.72;4.20;;;;;;;;;;10334600;28;20251;-76
2023/01/06 04:48:04;;;;;;;10.90;4.82;;;;;;;;;;10336650;28;20250;-75
2023/01/06 04:53:06;;;;;;;12.02;4.75;;;;;;;;;;10340835;28;20782;-76
2023/01/06 04:58:07;;;;;;;8.48;3.95;;;;;;;;;;10352031;28;20204;-75
2023/01/06 05:03:08;;;;;;;10.02;5.03;;;;;;;;;;10332844;28;20377;-76
2023/01/06 05:08:09;;;;;;;8.55;3.67;;;;;;;;;;10336688;28;20880;-76
2023/01/06 05:13:10;;;;;;;15.23;5.05;;;;;;;;;;10335874;28;20223;-75
2023/01/06 05:18:11;;;;;;;11.20;4.80;;;;;;;;;;10336025;28;20216;-76
2023/01/06 05:23:12;;;;;;;7.35;3.88;;;;;;;;;;10340347;28;20744;-75
2023/01/06 05:28:13;;;;;;;5.85;3.55;;;;;;;;;;10334993;28;20255;-75
2023/01/06 05:33:14;;;;;;;8.85;3.75;;;;;;;;;;10331338;28;20205;-76
2023/01/06 05:38:15;;;;;;;10.82;4.57;;;;;;;;;;10350309;28;20224;-76
2023/01/06 05:43:16;;;;;;;6.03;3.17;;;;;;;;;;10335612;28;20216;-76
2023/01/06 05:48:17;;;;;;;9.25;3.35;;;;;;;;;;10334675;28;20616;-76
2023/01/06 05:53:18;;;;;;;6.45;2.60;;;;;;;;;;10347938;28;20263;-75
2023/01/06 05:58:19;;;;;;;6.45;3.00;;;;;;;;;;10328025;28;20720;-76
2023/01/06 06:03:21;;;;;;;8.93;3.05;;;;;;;;;;10330874;28;20200;-76
2023/01/06 06:08:22;;;;;;;4.05;2.70;;;;;;;;;;10353361;28;20644;-75
2023/01/06 06:13:23;;;;;;;5.32;3.28;;;;;;;;;;10335852;28;20218;-76
2023/01/06 06:18:24;;;;;;;6.43;2.03;;;;;;;;;;10349739;28;20228;-74
2023/01/06 06:23:25;;;;;;;2.58;2.22;;;;;;;;;;10364132;28;20597;-76
2023/01/06 06:28:26;;;;;;;4.00;1.90;;;;;;;;;;10331950;28;20220;-76
2023/01/06 06:33:27;;;;;;;4.65;2.17;;;;;;;;;;10328995;28;20212;-77
2023/01/06 06:38:28;;;;;;;3.10;1.63;;;;;;;;;;10332191;28;20228;-76
2023/01/06 06:43:29;;;;;;;3.45;1.95;;;;;;;;;;10349163;28;20247;-76
2023/01/06 06:48:31;;;;;;;2.00;1.70;;;;;;;;;;10339663;28;20270;-76
2023/01/06 06:53:32;;;;;;;1.73;1.63;;;;;;;;;;10356909;28;20216;-76
2023/01/06 06:58:34;;;;;;;2.45;2.17;;;;;;;;;;10356756;28;20219;-76
2023/01/06 07:03:35;;;;;;;4.05;2.33;;;;;;;;;;10339021;28;20596;-76
2023/01/06 07:08:36;;;;;;;2.63;1.92;;;;;;;;;;10357219;28;20278;-76
2023/01/06 07:13:37;;;;;;;2.15;2.05;;;;;;;;;;10341360;28;20303;-77
2023/01/06 07:18:38;;;;;;;1.85;1.75;;;;;;;;;;10359384;28;20248;-75
2023/01/06 07:23:39;;;;;;;4.00;1.95;;;;;;;;;;10343949;28;20235;-75
2023/01/06 07:28:41;;;;;;;2.50;1.77;;;;;;;;;;10371352;28;20212;-75
2023/01/06 07:33:42;;;;;;;2.15;1.38;;;;;;;;;;10336410;28;20286;-75
2023/01/06 07:38:43;;;;;;;2.15;1.38;;;;;;;;;;10354002;28;20290;-74
2023/01/06 07:43:43;;;;;;;5.57;1.70;;;;;;;;;;10352428;28;20228;-75
2023/01/06 07:48:44;;;;;;;1.50;1.38;;;;;;;;;;10336355;28;20212;-75
2023/01/06 07:53:45;;;;;;;2.10;1.40;;;;;;;;;;10341169;28;20219;-75
2023/01/06 07:58:47;;;;;;;2.17;1.40;;;;;;;;;;10340065;28;20233;-74
2023/01/06 08:03:48;;;;;;;2.58;0.90;;;;;;;;;;10331971;28;20232;-75
2023/01/06 08:08:49;;;;;;;1.67;1.23;;;;;;;;;;10335238;28;20248;-76
2023/01/06 08:13:50;;;;;;;1.02;1.00;;;;;;;;;;10340048;28;20344;-75
2023/01/06 08:18:51;;;;;;;1.38;0.68;;;;;;;;;;10332197;28;20580;-75
2023/01/06 08:23:52;;;;;;;0.60;0.60;;;;;;;;;;10327839;28;20367;-73
2023/01/06 08:28:54;;;;;;;0.77;0.77;;;;;;;;;;10329630;28;20212;-74
2023/01/06 08:33:55;;;;;;;1.20;0.70;;;;;;;;;;10347418;28;20221;-74
2023/01/06 08:38:56;;;;;;;0.70;0.70;;;;;;;;;;10328135;28;20208;-75
2023/01/06 08:43:57;;;;;;;0.70;0.65;;;;;;;;;;10318943;28;20220;-75
2023/01/06 08:48:58;;;;;;;0.60;0.60;;;;;;;;;;10327139;28;20212;-74
2023/01/06 08:53:59;;;;;;;1.48;1.00;;;;;;;;;;10350416;28;20215;-75
2023/01/06 08:59:01;;;;;;;0.90;0.90;;;;;;;;;;10347793;28;20697;-74
2023/01/06 09:04:04;;;;;;;0.88;0.75;;;;;;;;;;10331466;28;21004;-74
2023/01/06 09:09:06;;;;;;;1.05;1.05;;;;;;;;;;10332998;28;20715;-74
2023/01/06 09:14:07;;;;;;;0.93;0.90;;;;;;;;;;10331795;28;20220;-74
2023/01/06 09:19:11;;;;;;;1.60;0.80;;;;;;;;;;10331840;28;21069;-74
2023/01/06 09:24:13;;;;;;;2.70;1.20;;;;;;;;;;10330278;28;20236;-73
2023/01/06 09:29:14;;;;;;;4.32;0.93;;;;;;;;;;10331961;28;20247;-74
2023/01/06 09:34:15;;;;;;;1.65;1.27;;;;;;;;;;10324357;28;21364;-74
2023/01/06 09:39:16;;;;;;;0.98;0.98;;;;;;;;;;10329695;28;20239;-74
2023/01/06 09:44:20;;;;;;;1.30;1.17;;;;;;;;;;10328802;28;20228;-76
2023/01/06 09:49:40;;;;;;;1.85;1.05;;;;;;;;;;10333784;28;20220;-76
2023/01/06 09:54:47;;;;;;;1.50;1.40;;;;;;;;;;10342017;28;20219;-76
2023/01/06 10:00:08;;;;;;;1.55;1.45;;;;;;;;;;10341386;28;20243;-75
2023/01/06 10:05:35;;;;;;;1.15;0.88;;;;;;;;;;10319272;28;20274;-75
2023/01/06 10:10:39;;;;;;;1.75;1.13;;;;;;;;;;10328778;28;20230;-74
2023/01/06 10:15:47;;;;;;;1.20;1.10;;;;;;;;;;10327164;28;20219;-75
2023/01/06 10:20:56;;;;;;;0.77;0.77;;;;;;;;;;10339795;28;20216;-75
2023/01/06 10:26:05;;;;;;;0.40;0.40;;;;;;;;;;10335909;28;20227;-76
2023/01/06 10:31:08;;;;;;;0.38;0.38;;;;;;;;;;10335358;28;20641;-75
2023/01/06 10:36:13;;;;;;;0.50;0.50;;;;;;;;;;10334300;28;20692;-75
2023/01/06 10:41:25;;;;;;;1.00;1.00;;;;;;;;;;10338371;28;20216;-76
2023/01/06 10:46:30;;;;;;;0.65;0.40;;;;;;;;;;10343777;28;20215;-76
2023/01/06 10:51:34;;;;;;;0.50;0.50;;;;;;;;;;10334906;28;20224;-74
2023/01/06 10:56:35;;;;;;;0.40;0.40;;;;;;;;;;10335853;28;20610;-74
2023/01/06 11:01:47;;;;;;;0.30;0.30;;;;;;;;;;10346288;28;20231;-74
2023/01/06 11:06:50;;;;;;;0.50;0.50;;;;;;;;;;10328872;28;20751;-74
2023/01/06 11:11:52;;;;;;;1.35;0.30;;;;;;;;;;10336092;28;20323;-75
2023/01/06 11:16:56;;;;;;;0.30;0.30;;;;;;;;;;10321653;28;20688;-75
2023/01/06 11:21:57;;;;;;;2.10;0.20;;;;;;;;;;10329055;28;20216;-74
2023/01/06 11:26:59;;;;;;;0.10;0.10;;;;;;;;;;10331743;28;20283;-75
2023/01/06 11:32:02;;;;;;;0.20;0.20;;;;;;;;;;10333179;28;20304;-75
2023/01/06 11:37:04;;;;;;;0.20;0.20;;;;;;;;;;10337990;28;20219;-75
2023/01/06 11:42:11;;;;;;;2.05;0.25;;;;;;;;;;10340911;28;20718;-74
2023/01/06 11:47:14;;;;;;;0.30;0.20;;;;;;;;;;10340131;28;20216;-75
2023/01/06 11:52:29;;;;;;;0.35;0.28;;;;;;;;;;10349211;28;20221;-73
2023/01/06 11:57:34;;;;;;;8.07;0.40;;;;;;;;;;10335649;28;20735;-74
2023/01/06 12:02:48;;;;;;;0.65;0.20;;;;;;;;;;10351533;28;20251;-75
2023/01/06 12:07:54;;;;;;;0.40;0.30;;;;;;;;;;10336103;28;20212;-74
2023/01/06 12:12:55;;;;;;;0.98;0.20;;;;;;;;;;10349256;28;20359;-74
2023/01/06 12:18:01;;;;;;;0.10;0.10;;;;;;;;;;10334122;28;20311;-76
2023/01/06 12:23:07;;;;;;;0.10;0.10;;;;;;;;;;10332744;28;20327;-75
2023/01/06 12:28:15;;;;;;;0.10;0.10;;;;;;;;;;10336836;28;20204;-75
2023/01/06 12:33:19;;;;;;;0.28;0.20;;;;;;;;;;10336660;28;20314;-74
2023/01/06 12:38:38;;;;;;;0.52;0.10;;;;;;;;;;10347743;28;20216;-75
2023/01/06 12:43:42;;;;;;;0.55;0.10;;;;;;;;;;10351151;28;20247;-75
2023/01/06 12:48:43;;;;;;;0.20;0.10;;;;;;;;;;10336649;28;20222;-75
2023/01/06 12:54:13;;;;;;;0.10;0.10;;;;;;;;;;10336151;28;20219;-75
2023/01/06 12:59:20;;;;;;;0.10;0.10;;;;;;;;;;10318776;28;20228;-76
2023/01/06 13:04:31;;;;;;;0.10;0.10;;;;;;;;;;10325505;28;20251;-76
2023/01/06 13:09:52;;;;;;;0.10;0.10;;;;;;;;;;10337427;28;20208;-74
2023/01/06 13:15:00;;;;;;;0.10;0.10;;;;;;;;;;10317104;28;20897;-75
2023/01/06 13:20:04;;;;;;;0.10;0.10;;;;;;;;;;10336180;28;20222;-75
2023/01/06 13:25:24;;;;;;;0.43;0.13;;;;;;;;;;10334119;28;20228;-75
2023/01/06 13:30:25;;;;;;;0.20;0.20;;;;;;;;;;10333788;28;20220;-75
2023/01/06 13:35:38;;;;;;;0.30;0.20;;;;;;;;;;10324606;28;20208;-74
2023/01/06 13:40:39;;;;;;;0.17;0.17;;;;;;;;;;10355353;28;20223;-75
2023/01/06 13:45:43;;;;;;;0.30;0.30;;;;;;;;;;10328586;28;20845;-75
2023/01/06 13:50:44;;;;;;;0.43;0.22;;;;;;;;;;10326378;28;20483;-75
2023/01/06 13:55:45;;;;;;;0.30;0.30;;;;;;;;;;10344402;28;20216;-76
2023/01/06 14:01:04;;;;;;;1.92;0.30;;;;;;;;;;10327073;28;20223;-75
2023/01/06 14:06:09;;;;;;;0.25;0.25;;;;;;;;;;10334061;28;20290;-75
2023/01/06 14:11:21;;;;;;;0.47;0.40;;;;;;;;;;10330683;28;20243;-76
2023/01/06 14:16:38;;;;;;;0.22;0.22;;;;;;;;;;10323536;28;20286;-76
2023/01/06 14:21:39;;;;;;;1.08;0.30;;;;;;;;;;10331038;28;20231;-79
2023/01/06 14:26:54;;;;;;;1.67;0.30;;;;;;;;;;10324451;28;20235;-76
2023/01/06 14:31:55;;;;;;;0.30;0.30;;;;;;;;;;10323469;28;20270;-75
2023/01/06 14:36:57;;;;;;;0.30;0.30;;;;;;;;;;10329026;28;21144;-75
2023/01/06 14:42:06;;;;;;;0.47;0.32;;;;;;;;;;10325637;28;20596;-76
2023/01/06 14:47:11;;;;;;;0.40;0.40;;;;;;;;;;10328983;28;20220;-75
2023/01/06 14:52:16;;;;;;;0.57;0.57;;;;;;;;;;10337150;28;20223;-75
2023/01/06 14:57:24;;;;;;;0.50;0.50;;;;;;;;;;10334721;28;20222;-76
2023/01/06 15:02:26;;;;;;;0.50;0.50;;;;;;;;;;10335070;28;20281;-75
2023/01/06 15:07:27;;;;;;;0.35;0.35;;;;;;;;;;10336961;28;20231;-76
2023/01/06 15:12:32;;;;;;;0.55;0.55;;;;;;;;;;10340636;28;20346;-75
2023/01/06 15:17:33;;;;;;;0.55;0.55;;;;;;;;;;10337048;28;20216;-76
2023/01/06 15:22:34;;;;;;;0.82;0.82;;;;;;;;;;10338526;28;20245;-76
2023/01/06 15:27:35;;;;;;;1.13;0.60;;;;;;;;;;10341800;28;20213;-76
2023/01/06 15:32:39;;;;;;;0.60;0.60;;;;;;;;;;10353396;28;20216;-75
2023/01/06 15:37:42;;;;;;;0.65;0.65;;;;;;;;;;10354507;28;20616;-76
2023/01/06 15:42:43;;;;;;;0.95;0.95;;;;;;;;;;10357420;28;20223;-76
2023/01/06 15:47:47;;;;;;;1.40;1.40;;;;;;;;;;10340879;28;20259;-77
2023/01/06 15:52:52;;;;;;;5.15;4.75;;;;;;;;;;10336216;28;20231;-75
2023/01/06 15:57:59;;;;;;;5.28;4.97;;;;;;;;;;10338149;28;20251;-77
2023/01/06 16:03:00;;;;;;;5.28;4.95;;;;;;;;;;10365806;28;20251;-75
2023/01/06 16:08:02;;;;;;;5.55;5.20;;;;;;;;;;10336133;28;20689;-75
2023/01/06 16:13:04;;;;;;;4.90;4.65;;;;;;;;;;10329157;28;20333;-76
2023/01/06 16:18:06;;;;;;;2.92;2.78;;;;;;;;;;10347054;28;20240;-75
2023/01/06 16:23:16;;;;;;;3.53;3.42;;;;;;;;;;10333276;28;20224;-76
2023/01/06 16:28:20;;;;;;;2.95;2.75;;;;;;;;;;10359499;28;20234;-75
2023/01/06 16:33:33;;;;;;;2.88;2.78;;;;;;;;;;10329684;28;20371;-76
2023/01/06 16:38:37;;;;;;;3.50;3.40;;;;;;;;;;10363044;28;20423;-76
2023/01/06 16:43:38;;;;;;;4.47;4.07;;;;;;;;;;10324728;28;20224;-75
2023/01/06 16:48:39;;;;;;;4.55;3.90;;;;;;;;;;10350442;28;20241;-75
2023/01/06 16:53:42;;;;;;;3.60;3.28;;;;;;;;;;10325004;28;20946;-75
2023/01/06 16:58:43;;;;;;;3.42;2.67;;;;;;;;;;10337022;28;20633;-76
2023/01/06 17:03:47;;;;;;;2.58;2.47;;;;;;;;;;10337119;28;20644;-75
2023/01/06 17:08:49;;;;;;;3.08;2.97;;;;;;;;;;10336883;28;20244;-76
2023/01/06 17:13:55;;;;;;;4.05;3.65;;;;;;;;;;10335525;28;20223;-75
2023/01/06 17:19:00;;;;;;;4.82;4.28;;;;;;;;;;10336973;28;20243;-75
2023/01/06 17:24:04;;;;;;;3.92;3.60;;;;;;;;;;10349177;28;20224;-76
2023/01/06 17:29:13;;;;;;;6.00;4.07;;;;;;;;;;10333186;28;20712;-75
2023/01/06 17:34:16;;;;;;;5.90;5.40;;;;;;;;;;10358476;28;20220;-75
2023/01/06 17:39:31;;;;;;;5.97;5.47;;;;;;;;;;10332949;28;20220;-75
2023/01/06 17:44:40;;;;;;;5.43;5.03;;;;;;;;;;10338634;28;20449;-76
2023/01/06 17:49:43;;;;;;;5.63;4.55;;;;;;;;;;10323941;28;20212;-76
2023/01/06 18:00:22;;;;;;;4.38;4.13;;;;;;;;;;10332655;28;20208;-76
2023/01/06 18:05:25;;;;;;;4.25;3.95;;;;;;;;;;10331934;28;20259;-75
2023/01/06 18:10:26;;;;;;;4.45;4.15;;;;;;;;;;10325647;28;20601;-76
2023/01/06 18:15:33;;;;;;;3.60;3.30;;;;;;;;;;10342928;28;20212;-76
2023/01/06 18:20:34;;;;;;;2.95;2.85;;;;;;;;;;10331518;28;20219;-76
2023/01/06 18:25:35;;;;;;;3.30;3.03;;;;;;;;;;10327775;28;20233;-76
2023/01/06 18:30:36;;;;;;;4.47;3.58;;;;;;;;;;10356036;28;20238;-76
2023/01/06 18:35:37;;;;;;;3.88;3.53;;;;;;;;;;10330437;28;20212;-76
2023/01/06 18:40:38;;;;;;;7.38;6.05;;;;;;;;;;10338742;28;21000;-76
2023/01/06 18:45:39;;;;;;;4.07;3.88;;;;;;;;;;10337225;28;20772;-76
2023/01/06 18:50:42;;;;;;;4.20;3.78;;;;;;;;;;10332384;28;20222;-76
2023/01/06 18:55:54;;;;;;;3.38;3.28;;;;;;;;;;10322417;28;20610;-76
2023/01/06 19:01:07;;;;;;;3.05;2.88;;;;;;;;;;10338905;28;20227;-75
2023/01/06 19:06:08;;;;;;;3.85;3.55;;;;;;;;;;10341533;28;20318;-74
2023/01/06 19:11:17;;;;;;;5.75;5.32;;;;;;;;;;10354120;28;20228;-74
2023/01/06 19:16:33;;;;;;;4.30;4.05;;;;;;;;;;10349912;28;20218;-75
2023/01/06 19:21:35;;;;;;;5.38;4.70;;;;;;;;;;10339121;28;20216;-76
2023/01/06 19:26:40;;;;;;;6.80;6.15;;;;;;;;;;10350638;28;20231;-76
2023/01/06 19:31:45;;;;;;;5.25;4.85;;;;;;;;;;10335191;28;20724;-75
2023/01/06 19:36:50;;;;;;;5.60;5.10;;;;;;;;;;10341370;28;20760;-75
2023/01/06 19:41:52;;;;;;;13.60;3.95;;;;;;;;;;10341054;28;20213;-76
2023/01/06 19:46:53;;;;;;;4.32;3.92;;;;;;;;;;10347944;28;20220;-75
2023/01/06 19:51:54;;;;;;;4.30;3.92;;;;;;;;;;10331261;28;20230;-75
2023/01/06 19:56:55;;;;;;;5.55;5.07;;;;;;;;;;10351232;28;20211;-75
2023/01/06 20:01:58;;;;;;;5.13;4.68;;;;;;;;;;10334479;28;20212;-76
2023/01/06 20:07:03;;;;;;;3.70;3.50;;;;;;;;;;10336668;28;20447;-75
2023/01/06 20:12:04;;;;;;;5.18;4.68;;;;;;;;;;10342037;28;20227;-75
2023/01/06 20:17:05;;;;;;;4.28;3.97;;;;;;;;;;10340301;28;20212;-74
2023/01/06 20:22:06;;;;;;;5.05;4.68;;;;;;;;;;10336081;28;20311;-75
2023/01/06 20:27:07;;;;;;;4.63;4.22;;;;;;;;;;10349353;28;20311;-75
2023/01/06 20:32:08;;;;;;;4.80;4.38;;;;;;;;;;10320971;28;20227;-75
2023/01/06 20:37:09;;;;;;;3.97;3.65;;;;;;;;;;10331968;28;20226;-76
2023/01/06 20:42:10;;;;;;;5.18;4.47;;;;;;;;;;10330305;28;20216;-76
2023/01/06 20:47:11;;;;;;;3.75;3.50;;;;;;;;;;10335392;28;20231;-75
2023/01/06 20:52:12;;;;;;;3.85;3.55;;;;;;;;;;10329854;28;24238;-76
2023/01/06 20:57:13;;;;;;;4.45;4.15;;;;;;;;;;10336419;28;20228;-75
2023/01/06 21:02:14;;;;;;;4.10;3.75;;;;;;;;;;10337634;28;20247;-75
2023/01/06 21:07:15;;;;;;;3.90;3.55;;;;;;;;;;10333416;28;20310;-75
2023/01/06 21:12:16;;;;;;;4.47;3.33;;;;;;;;;;10340242;28;20339;-75
2023/01/06 21:17:17;;;;;;;3.53;3.22;;;;;;;;;;10326400;28;20347;-75
2023/01/06 21:22:19;;;;;;;3.75;3.25;;;;;;;;;;10324245;28;20232;-75
2023/01/06 21:27:20;;;;;;;3.75;3.42;;;;;;;;;;10327012;28;20223;-75
2023/01/06 21:32:21;;;;;;;3.63;3.42;;;;;;;;;;10341673;28;20692;-75
2023/01/06 21:37:22;;;;;;;5.22;4.68;;;;;;;;;;10346258;28;20216;-75
2023/01/06 21:47:42;;;;;;;11.60;6.85;;;;;;;;;;10332887;28;20220;-75
2023/01/06 21:52:45;;;;;;;6.10;5.57;;;;;;;;;;10337812;28;20611;-75
2023/01/06 21:57:47;;;;;;;5.15;4.20;;;;;;;;;;10338183;28;20724;-75
2023/01/06 22:02:48;;;;;;;3.63;3.33;;;;;;;;;;10346356;28;20684;-75
2023/01/06 22:07:50;;;;;;;3.85;3.55;;;;;;;;;;10337871;28;20720;-75
2023/01/06 22:12:53;;;;;;;2.70;2.60;;;;;;;;;;10348188;28;20872;-75
2023/01/06 22:17:54;;;;;;;3.72;3.03;;;;;;;;;;10332329;28;20238;-75
2023/01/06 22:22:56;;;;;;;2.75;2.58;;;;;;;;;;10337685;28;20236;-75
2023/01/06 22:27:58;;;;;;;2.67;2.47;;;;;;;;;;10330219;28;20244;-75
2023/01/06 22:32:59;;;;;;;3.35;3.13;;;;;;;;;;10330973;28;20212;-75
2023/01/06 22:38:00;;;;;;;3.47;3.08;;;;;;;;;;10332489;28;20683;-75
2023/01/06 22:43:03;;;;;;;4.13;2.60;;;;;;;;;;10334536;28;20204;-75
2023/01/06 22:48:04;;;;;;;3.50;3.20;;;;;;;;;;10330481;28;20302;-75
2023/01/06 22:53:05;;;;;;;3.10;2.90;;;;;;;;;;10334468;28;20306;-75
2023/01/06 22:58:07;;;;;;;3.00;2.55;;;;;;;;;;10352024;28;20217;-75
2023/01/06 23:03:08;;;;;;;5.10;3.42;;;;;;;;;;10327089;28;20207;-75
2023/01/06 23:08:09;;;;;;;4.18;2.90;;;;;;;;;;10345567;28;20711;-75
2023/01/06 23:13:10;;;;;;;3.40;3.13;;;;;;;;;;10349403;28;20310;-75
2023/01/06 23:18:11;;;;;;;1.98;1.80;;;;;;;;;;10350703;28;20207;-75
2023/01/06 23:23:12;;;;;;;2.35;2.10;;;;;;;;;;10340012;28;20359;-73
2023/01/06 23:28:13;;;;;;;2.30;2.20;;;;;;;;;;10352729;28;20704;-75
2023/01/06 23:33:14;;;;;;;2.17;2.08;;;;;;;;;;10340201;28;20265;-75
2023/01/06 23:38:15;;;;;;;2.38;2.28;;;;;;;;;;10343783;28;20223;-75
2023/01/06 23:43:16;;;;;;;2.95;2.10;;;;;;;;;;10351640;28;20224;-75
2023/01/06 23:48:17;;;;;;;1.70;1.60;;;;;;;;;;10341952;28;20262;-75
2023/01/06 23:53:18;;;;;;;1.73;1.63;;;;;;;;;;10341698;28;20240;-74
2023/01/06 23:58:19;;;;;;;1.92;1.83;;;;;;;;;;10351701;28;20280;-75
